Time;durP1;ratioP1;P1;durP2;ratioP2;P2;SDS_P1;SDS_P2;PMS_P1;PMS_P2;Temp;Humidity;BMP_temperature;BMP_pressure;BME280_temperature;BME280_humidity;BME280_pressure;Samples;Min_cycle;Max_cycle;Signal;HPM_P1;HPM_P2
2022/06/17 00:00:31;;;;;;;2.40;2.20;;;26.10;60.10;;;;;;4976141;28;20587;-81
2022/06/17 00:02:58;;;;;;;2.07;1.87;;;26.10;60.10;;;;;;4976039;28;20553;-81
2022/06/17 00:05:25;;;;;;;2.10;1.90;;;26.10;60.10;;;;;;4976146;28;20541;-81
2022/06/17 00:07:52;;;;;;;1.90;1.80;;;26.10;60.10;;;;;;4975924;28;20473;-84
2022/06/17 00:10:23;;;;;;;1.97;1.87;;;26.10;60.00;;;;;;4975813;28;20516;-80
2022/06/17 00:12:50;;;;;;;2.33;2.23;;;26.10;60.10;;;;;;4976178;28;20446;-81
2022/06/17 00:15:17;;;;;;;1.90;1.80;;;26.10;60.10;;;;;;4975929;28;20951;-81
2022/06/17 00:17:49;;;;;;;1.80;1.70;;;26.10;60.10;;;;;;4975774;28;20476;-80
2022/06/17 00:20:20;;;;;;;2.67;2.00;;;26.10;60.10;;;;;;4975832;28;20499;-81
2022/06/17 00:22:47;;;;;;;2.10;2.00;;;26.10;60.10;;;;;;4975885;28;20532;-80
2022/06/17 00:25:27;;;;;;;1.90;1.80;;;26.10;61.00;;;;;;4975789;28;20487;-81
2022/06/17 00:27:55;;;;;;;2.03;1.93;;;26.20;60.20;;;;;;4975706;28;20449;-80
2022/06/17 00:30:25;;;;;;;2.30;2.10;;;26.10;60.20;;;;;;4974552;28;20568;-81
2022/06/17 00:32:59;;;;;;;2.53;1.93;;;26.10;60.10;;;;;;4975644;28;21047;-85
2022/06/17 00:35:33;;;;;;;1.83;1.73;;;26.20;60.20;;;;;;4975583;28;20528;-81
2022/06/17 00:38:01;;;;;;;1.90;1.80;;;26.20;60.30;;;;;;4975630;28;20455;-81
2022/06/17 00:40:32;;;;;;;1.67;1.57;;;26.10;60.20;;;;;;4975602;28;20507;-82
2022/06/17 00:43:02;;;;;;;2.40;1.97;;;26.20;60.30;;;;;;4975675;28;20541;-80
2022/06/17 00:45:32;;;;;;;2.23;2.03;;;26.20;60.30;;;;;;4975520;28;20448;-81
2022/06/17 00:48:07;;;;;;;1.90;1.80;;;26.10;60.20;;;;;;4975049;28;20441;-85
2022/06/17 00:50:38;;;;;;;2.00;1.83;;;26.10;60.20;;;;;;4975017;28;20445;-84
2022/06/17 00:53:14;;;;;;;1.60;1.50;;;26.20;60.30;;;;;;4975508;28;20549;-83
2022/06/17 00:55:46;;;;;;;1.90;1.80;;;26.20;60.30;;;;;;4975104;28;20442;-81
2022/06/17 00:58:17;;;;;;;2.30;2.10;;;26.20;60.30;;;;;;4975245;28;20472;-84
2022/06/17 01:00:44;;;;;;;1.70;1.60;;;26.20;60.30;;;;;;4975043;28;20481;-80
2022/06/17 01:03:18;;;;;;;2.30;2.10;;;26.20;60.30;;;;;;4975089;28;20457;-81
2022/06/17 01:05:49;;;;;;;1.80;1.70;;;26.10;60.20;;;;;;4975387;28;20521;-81
2022/06/17 01:11:20;;;;;;;2.20;2.10;;;26.20;60.20;;;;;;4975184;28;20504;-81
2022/06/17 01:13:50;;;;;;;1.70;1.60;;;26.10;60.30;;;;;;4974869;28;20840;-81
2022/06/17 01:16:19;;;;;;;1.87;1.77;;;26.10;60.20;;;;;;4974372;28;20447;-81
2022/06/17 01:18:50;;;;;;;2.60;2.40;;;26.20;60.30;;;;;;4974819;28;20492;-81
2022/06/17 01:21:24;;;;;;;2.00;1.90;;;26.10;60.30;;;;;;4974708;28;20484;-81
2022/06/17 01:23:53;;;;;;;1.90;1.80;;;26.10;60.20;;;;;;4974790;28;20952;-82
2022/06/17 01:26:20;;;;;;;2.23;1.87;;;26.10;61.10;;;;;;4974863;28;20823;-84
2022/06/17 01:28:47;;;;;;;2.00;1.90;;;26.20;60.30;;;;;;4974514;28;20446;-79
2022/06/17 01:31:14;;;;;;;1.87;1.77;;;26.20;60.30;;;;;;4974477;28;20519;-84
2022/06/17 01:33:43;;;;;;;2.27;2.17;;;26.10;60.30;;;;;;4974611;28;20477;-80
2022/06/17 01:36:14;;;;;;;1.70;1.43;;;26.10;60.30;;;;;;4974769;28;20449;-85
2022/06/17 01:38:43;;;;;;;2.13;1.93;;;26.20;60.40;;;;;;4974335;28;20532;-79
2022/06/17 01:41:14;;;;;;;1.80;1.70;;;26.10;60.40;;;;;;4974609;28;20519;-85
2022/06/17 01:43:46;;;;;;;1.67;1.57;;;26.10;60.30;;;;;;4974301;28;20544;-80
2022/06/17 01:46:17;;;;;;;1.90;1.80;;;26.10;60.40;;;;;;4974272;28;20452;-80
2022/06/17 01:49:01;;;;;;;2.00;1.90;;;26.10;60.30;;;;;;4973992;28;20468;-84
2022/06/17 01:51:32;;;;;;;1.83;1.73;;;26.10;60.30;;;;;;4974570;28;20445;-80
2022/06/17 01:54:04;;;;;;;1.80;1.70;;;26.10;60.40;;;;;;4974580;28;20945;-82
2022/06/17 01:56:35;;;;;;;1.80;1.70;;;26.10;60.40;;;;;;4974476;28;20528;-82
2022/06/17 01:59:06;;;;;;;2.30;2.20;;;26.10;60.30;;;;;;4974187;28;20449;-85
2022/06/17 02:01:36;;;;;;;1.80;1.70;;;26.10;60.30;;;;;;4977182;28;20968;-81
2022/06/17 02:04:08;;;;;;;2.03;1.93;;;26.10;60.40;;;;;;4978285;28;20548;-81
2022/06/17 02:06:41;;;;;;;2.07;1.97;;;26.10;60.40;;;;;;4978049;28;20464;-81
2022/06/17 02:09:08;;;;;;;1.83;1.73;;;26.10;60.40;;;;;;4978585;28;20452;-82
2022/06/17 02:11:36;;;;;;;2.00;1.90;;;26.10;61.30;;;;;;4978215;28;20544;-81
2022/06/17 02:14:06;;;;;;;1.90;1.80;;;26.10;60.40;;;;;;4978105;28;20549;-81
2022/06/17 02:16:35;;;;;;;2.13;2.03;;;26.10;60.40;;;;;;4978161;28;20441;-81
2022/06/17 02:19:04;;;;;;;2.07;1.87;;;26.10;60.40;;;;;;4978021;28;20870;-82
2022/06/17 02:21:35;;;;;;;1.80;1.70;;;26.10;60.50;;;;;;4978082;28;20580;-82
2022/06/17 02:24:05;;;;;;;1.70;1.60;;;26.10;60.50;;;;;;4978158;28;20884;-81
2022/06/17 02:26:35;;;;;;;2.07;1.97;;;26.10;60.50;;;;;;4978003;28;20441;-81
2022/06/17 02:29:07;;;;;;;1.80;1.70;;;26.10;60.40;;;;;;4978026;28;20984;-81
2022/06/17 02:31:35;;;;;;;1.63;1.53;;;26.10;60.50;;;;;;4977382;28;20580;-81
2022/06/17 02:34:04;;;;;;;1.90;1.70;;;26.00;60.30;;;;;;4977754;28;20822;-81
2022/06/17 02:36:35;;;;;;;1.67;1.57;;;26.10;60.50;;;;;;4977881;28;20954;-81
2022/06/17 02:39:04;;;;;;;1.70;1.60;;;26.10;60.40;;;;;;4977681;28;20450;-81
2022/06/17 02:41:31;;;;;;;1.90;1.80;;;26.10;60.40;;;;;;4977631;28;21006;-82
2022/06/17 02:44:01;;;;;;;2.23;2.03;;;26.10;60.40;;;;;;4977605;28;20552;-81
2022/06/17 02:46:33;;;;;;;1.70;1.60;;;26.10;60.40;;;;;;4977204;28;20798;-86
2022/06/17 02:49:02;;;;;;;2.00;1.90;;;26.10;60.40;;;;;;4977252;28;20433;-87
2022/06/17 02:51:32;;;;;;;1.93;1.83;;;26.10;60.40;;;;;;4977714;28;20444;-81
2022/06/17 02:54:00;;;;;;;1.87;1.77;;;26.10;60.40;;;;;;4977713;28;20456;-82
2022/06/17 02:56:30;;;;;;;1.70;1.60;;;26.00;60.40;;;;;;4977528;28;20505;-81
2022/06/17 02:59:06;;;;;;;2.00;1.90;;;26.00;60.40;;;;;;4977346;28;20445;-81
2022/06/17 03:01:37;;;;;;;1.97;1.87;;;26.10;60.50;;;;;;4977064;28;20587;-81
2022/06/17 03:04:12;;;;;;;1.77;1.67;;;26.00;60.40;;;;;;4977339;28;20461;-85
2022/06/17 03:06:41;;;;;;;1.63;1.53;;;26.00;60.40;;;;;;4977277;28;20852;-81
2022/06/17 03:09:17;;;;;;;1.70;1.60;;;26.00;60.40;;;;;;4977239;28;20776;-84
2022/06/17 03:11:47;;;;;;;1.60;1.50;;;26.10;60.40;;;;;;4976371;28;20449;-79
2022/06/17 03:14:14;;;;;;;1.50;1.40;;;26.00;60.30;;;;;;4977051;28;20528;-80
2022/06/17 03:16:43;;;;;;;1.60;1.50;;;26.00;60.40;;;;;;4977234;28;20452;-80
2022/06/17 03:19:10;;;;;;;1.80;1.70;;;26.00;60.40;;;;;;4977109;28;20492;-80
2022/06/17 03:21:37;;;;;;;1.87;1.77;;;26.00;60.40;;;;;;4977280;28;20571;-80
2022/06/17 03:24:12;;;;;;;1.90;1.80;;;26.00;60.40;;;;;;4976933;28;20541;-84
2022/06/17 03:26:44;;;;;;;1.60;1.50;;;26.00;60.40;;;;;;4976966;28;20480;-80
2022/06/17 03:29:12;;;;;;;1.80;1.70;;;26.00;60.40;;;;;;4976688;28;20480;-80
2022/06/17 03:31:46;;;;;;;1.60;1.50;;;26.00;61.30;;;;;;4976446;28;20448;-81
2022/06/17 03:34:18;;;;;;;2.10;2.00;;;26.00;60.40;;;;;;4976778;28;20999;-80
2022/06/17 03:36:49;;;;;;;1.40;1.30;;;26.00;60.40;;;;;;4976683;28;20532;-81
2022/06/17 03:39:21;;;;;;;1.60;1.50;;;26.00;60.40;;;;;;4976533;28;20957;-81
2022/06/17 03:41:53;;;;;;;1.60;1.50;;;26.00;60.40;;;;;;4976478;28;20852;-81
2022/06/17 03:44:23;;;;;;;1.80;1.70;;;26.00;60.50;;;;;;4976753;28;20955;-81
2022/06/17 03:46:56;;;;;;;1.50;1.40;;;26.00;60.40;;;;;;4976500;28;20941;-81
2022/06/17 03:49:30;;;;;;;2.07;1.97;;;26.00;60.40;;;;;;4976258;28;20450;-81
2022/06/17 03:52:03;;;;;;;1.67;1.57;;;26.00;60.50;;;;;;4976656;28;20448;-81
2022/06/17 03:54:30;;;;;;;1.90;1.80;;;26.00;60.40;;;;;;4976272;28;21103;-81
2022/06/17 03:56:57;;;;;;;1.40;1.30;;;26.00;60.40;;;;;;4975199;28;20537;-82
2022/06/17 03:59:27;;;;;;;2.27;2.07;;;26.00;60.50;;;;;;4976322;28;20451;-84
2022/06/17 04:01:59;;;;;;;1.80;1.70;;;26.00;60.50;;;;;;4975859;28;20497;-80
2022/06/17 04:04:32;;;;;;;1.60;1.50;;;26.00;60.50;;;;;;4976191;28;20459;-80
2022/06/17 04:07:00;;;;;;;1.63;1.53;;;26.00;60.50;;;;;;4975985;28;21075;-82
2022/06/17 04:09:28;;;;;;;1.90;1.80;;;26.00;60.50;;;;;;4975796;28;20453;-80
2022/06/17 04:12:03;;;;;;;1.83;1.67;;;26.00;60.60;;;;;;4976129;28;20441;-82
2022/06/17 04:14:45;;;;;;;1.40;1.30;;;26.00;60.60;;;;;;4975607;28;20536;-81
2022/06/17 04:17:19;;;;;;;1.70;1.60;;;26.00;60.70;;;;;;4975852;28;20524;-81
2022/06/17 04:19:52;;;;;;;1.70;1.60;;;26.00;60.60;;;;;;4975808;28;20464;-81
2022/06/17 04:22:26;;;;;;;1.67;1.57;;;26.00;60.60;;;;;;4975647;28;21096;-81
2022/06/17 04:24:56;;;;;;;1.50;1.40;;;26.00;60.60;;;;;;4975225;28;20913;-81
2022/06/17 04:27:56;;;;;;;1.60;1.50;;;26.00;60.60;;;;;;4975786;28;20860;-81
2022/06/17 04:30:16;;;;;;;1.80;1.70;;;26.00;60.60;;;;;;4975135;28;20474;-82
2022/06/17 04:32:45;;;;;;;1.50;1.40;;;26.00;61.60;;;;;;4975537;28;20961;-81
2022/06/17 04:35:13;;;;;;;1.50;1.40;;;25.90;60.70;;;;;;4975495;28;20437;-85
2022/06/17 04:37:41;;;;;;;1.70;1.60;;;26.00;60.70;;;;;;4975139;28;20453;-82
2022/06/17 04:40:21;;;;;;;1.60;1.50;;;26.00;61.60;;;;;;4975400;28;20449;-81
2022/06/17 04:42:49;;;;;;;1.73;1.63;;;26.00;60.70;;;;;;4975639;28;20532;-86
2022/06/17 04:45:20;;;;;;;1.57;1.47;;;26.00;60.80;;;;;;4975275;28;20473;-80
2022/06/17 04:47:48;;;;;;;1.90;1.80;;;26.00;60.80;;;;;;4975270;28;20532;-81
2022/06/17 04:50:18;;;;;;;1.67;1.57;;;26.00;60.90;;;;;;4975235;28;20441;-85
2022/06/17 04:52:48;;;;;;;1.80;1.70;;;26.00;60.90;;;;;;4975552;28;20504;-81
2022/06/17 04:55:19;;;;;;;1.57;1.47;;;26.00;60.90;;;;;;4975353;28;20524;-83
2022/06/17 04:57:47;;;;;;;1.50;1.40;;;26.00;60.90;;;;;;4975336;28;20936;-79
2022/06/17 05:00:20;;;;;;;1.50;1.40;;;26.00;60.90;;;;;;4975128;28;20438;-80
2022/06/17 05:02:49;;;;;;;1.50;1.40;;;26.00;61.00;;;;;;4975360;28;20480;-85
2022/06/17 05:05:22;;;;;;;1.50;1.40;;;26.00;61.00;;;;;;4975405;28;20452;-84
2022/06/17 05:07:52;;;;;;;1.63;1.53;;;26.00;61.00;;;;;;4974928;28;20449;-83
2022/06/17 05:10:23;;;;;;;1.57;1.47;;;26.00;61.10;;;;;;4975250;28;20445;-81
2022/06/17 05:12:53;;;;;;;1.90;1.80;;;25.90;61.00;;;;;;4975070;28;20464;-81
2022/06/17 05:15:22;;;;;;;1.77;1.67;;;26.00;61.10;;;;;;4975108;28;20449;-85
2022/06/17 05:17:50;;;;;;;1.57;1.47;;;26.00;61.10;;;;;;4974813;28;20441;-82
2022/06/17 05:20:20;;;;;;;1.67;1.57;;;26.00;61.10;;;;;;4975001;28;20441;-84
2022/06/17 05:22:50;;;;;;;1.70;1.60;;;26.00;61.10;;;;;;4974002;28;20450;-82
2022/06/17 05:25:20;;;;;;;5.47;2.23;;;26.00;60.90;;;;;;4973811;28;20445;-82
2022/06/17 05:27:47;;;;;;;3.93;3.20;;;25.90;61.50;;;;;;4974567;28;20452;-82
2022/06/17 05:30:15;;;;;;;6.00;3.50;;;25.90;62.00;;;;;;4973894;28;20888;-85
2022/06/17 05:32:46;;;;;;;3.30;3.00;;;25.90;62.10;;;;;;4962612;28;20521;-84
2022/06/17 05:35:14;;;;;;;3.23;2.53;;;25.90;62.10;;;;;;4955323;29;20453;-85
2022/06/17 05:37:41;;;;;;;3.03;2.83;;;25.80;62.10;;;;;;4955583;29;20438;-81
2022/06/17 05:40:09;;;;;;;3.20;2.80;;;25.80;62.30;;;;;;4966754;28;20444;-80
2022/06/17 05:42:36;;;;;;;2.40;2.20;;;25.70;62.50;;;;;;4974602;28;20551;-81
2022/06/17 05:45:03;;;;;;;2.30;2.10;;;25.80;62.50;;;;;;4974935;28;20445;-84
2022/06/17 05:47:30;;;;;;;3.80;2.47;;;25.70;62.30;;;;;;4974396;28;20639;-81
2022/06/17 05:49:57;;;;;;;5.83;2.10;;;25.80;62.90;;;;;;4974494;28;20442;-83
2022/06/17 05:52:25;;;;;;;6.90;2.70;;;25.80;61.80;;;;;;4974528;28;20465;-84
2022/06/17 05:55:00;;;;;;;4.20;2.60;;;25.70;61.50;;;;;;4974687;28;20536;-84
2022/06/17 05:57:27;;;;;;;2.17;1.97;;;25.80;61.60;;;;;;4974835;28;20444;-84
2022/06/17 05:59:54;;;;;;;2.17;1.97;;;25.80;62.40;;;;;;4974592;28;20945;-84
2022/06/17 06:02:20;;;;;;;4.77;2.07;;;25.70;63.00;;;;;;4974177;28;21069;-84
2022/06/17 06:04:47;;;;;;;2.33;2.13;;;25.70;62.80;;;;;;4974279;28;20453;-80
2022/06/17 06:07:14;;;;;;;2.17;1.67;;;25.80;62.80;;;;;;4973719;28;20481;-81
2022/06/17 06:09:42;;;;;;;1.93;1.83;;;25.70;63.30;;;;;;4974233;28;20937;-83
2022/06/17 06:12:10;;;;;;;3.07;1.60;;;25.80;62.80;;;;;;4973911;28;20569;-81
2022/06/17 06:14:37;;;;;;;2.20;2.00;;;25.80;62.30;;;;;;4954939;28;20541;-84
2022/06/17 06:17:05;;;;;;;2.70;2.00;;;25.80;62.00;;;;;;4957070;28;20536;-81
2022/06/17 06:19:32;;;;;;;2.53;2.10;;;25.80;62.20;;;;;;4973908;28;20449;-83
2022/06/17 06:21:59;;;;;;;1.83;1.73;;;25.80;62.10;;;;;;4973667;28;20491;-83
2022/06/17 06:24:26;;;;;;;2.23;1.60;;;25.80;62.30;;;;;;4974052;28;20544;-84
2022/06/17 06:26:54;;;;;;;2.37;1.67;;;25.80;63.10;;;;;;4974173;28;20448;-85
2022/06/17 06:29:21;;;;;;;2.33;1.93;;;25.80;62.40;;;;;;4974162;28;20443;-84
2022/06/17 06:31:49;;;;;;;2.57;1.30;;;25.80;62.60;;;;;;4975043;28;20556;-84
2022/06/17 06:34:20;;;;;;;1.60;1.50;;;25.80;62.80;;;;;;4974319;28;20453;-85
2022/06/17 06:36:47;;;;;;;2.70;1.30;;;25.80;62.90;;;;;;4974366;28;20445;-84
2022/06/17 06:39:14;;;;;;;3.43;1.57;;;25.80;63.00;;;;;;4974175;28;20448;-84
2022/06/17 06:41:40;;;;;;;1.37;1.27;;;25.80;62.80;;;;;;4974913;28;20871;-87
2022/06/17 06:44:09;;;;;;;4.80;1.87;;;25.80;62.60;;;;;;4976391;28;20453;-89
2022/06/17 06:46:37;;;;;;;4.60;1.60;;;25.80;62.60;;;;;;4974879;28;20540;-86
2022/06/17 06:49:03;;;;;;;2.43;1.50;;;25.80;62.70;;;;;;4978207;28;20525;-87
2022/06/17 06:51:30;;;;;;;1.90;1.70;;;25.80;62.70;;;;;;4977863;28;20544;-90
2022/06/17 06:53:57;;;;;;;2.33;1.57;;;25.80;62.60;;;;;;4977745;28;20951;-87
2022/06/17 06:56:24;;;;;;;1.60;1.50;;;25.80;62.70;;;;;;4977946;28;20532;-86
2022/06/17 06:58:51;;;;;;;2.70;1.37;;;25.80;62.80;;;;;;4977854;28;20450;-86
2022/06/17 07:01:19;;;;;;;3.37;1.60;;;25.80;62.70;;;;;;4977647;28;20575;-87
2022/06/17 07:03:46;;;;;;;2.20;2.00;;;25.80;62.70;;;;;;4977626;28;20508;-92
2022/06/17 07:06:14;;;;;;;2.23;1.33;;;25.80;62.50;;;;;;4977398;28;20532;-87
2022/06/17 07:08:41;;;;;;;1.50;1.40;;;25.90;62.30;;;;;;4977616;28;20548;-85
2022/06/17 07:11:09;;;;;;;2.33;1.60;;;25.90;62.30;;;;;;4968813;28;20533;-86
2022/06/17 07:13:36;;;;;;;3.23;1.40;;;25.90;62.30;;;;;;4958134;28;20489;-87
2022/06/17 07:16:06;;;;;;;3.10;1.80;;;25.90;62.10;;;;;;4958364;28;20447;-89
2022/06/17 07:18:36;;;;;;;2.03;1.43;;;25.90;62.10;;;;;;4958703;28;20454;-90
2022/06/17 07:21:05;;;;;;;2.37;1.23;;;25.90;62.00;;;;;;4963068;28;20993;-86
2022/06/17 07:23:34;;;;;;;2.73;1.60;;;25.90;61.90;;;;;;4958552;29;20485;-88
2022/06/17 07:26:03;;;;;;;1.67;1.57;;;25.90;61.90;;;;;;4957592;29;20460;-87
2022/06/17 07:28:30;;;;;;;2.03;1.70;;;25.90;62.00;;;;;;4957755;29;20446;-87
2022/06/17 07:30:57;;;;;;;1.70;1.27;;;25.90;61.90;;;;;;4957926;29;20474;-89
2022/06/17 07:33:26;;;;;;;2.47;1.70;;;25.90;61.90;;;;;;4959510;29;20478;-87
2022/06/17 07:35:57;;;;;;;1.90;1.70;;;26.00;61.90;;;;;;4966707;28;20482;-86
2022/06/17 07:41:13;;;;;;;1.43;1.33;;;26.00;61.90;;;;;;4962448;29;20445;-88
2022/06/17 07:43:40;;;;;;;2.20;1.80;;;25.90;61.90;;;;;;4957823;29;20851;-86
2022/06/17 07:46:07;;;;;;;2.70;1.57;;;25.90;61.80;;;;;;4957931;29;20478;-87
2022/06/17 07:48:35;;;;;;;2.47;1.43;;;25.90;61.70;;;;;;4957416;29;20562;-91
2022/06/17 07:51:04;;;;;;;1.70;1.60;;;25.90;61.70;;;;;;4957698;29;20478;-87
2022/06/17 07:53:34;;;;;;;2.13;1.70;;;25.90;61.70;;;;;;4957625;29;20500;-90
2022/06/17 07:56:02;;;;;;;1.33;1.23;;;25.90;61.70;;;;;;4957657;28;20545;-90
2022/06/17 07:58:29;;;;;;;1.40;1.30;;;25.90;61.70;;;;;;4957225;28;20530;-87
2022/06/17 08:00:56;;;;;;;1.30;1.20;;;25.90;61.70;;;;;;4957338;29;20444;-87
2022/06/17 08:03:23;;;;;;;1.53;1.37;;;25.90;61.60;;;;;;4957662;28;20498;-87
2022/06/17 08:05:53;;;;;;;1.40;1.30;;;25.90;61.50;;;;;;4957513;28;20541;-86
2022/06/17 08:08:23;;;;;;;1.93;1.40;;;25.90;61.50;;;;;;4957654;28;20478;-90
2022/06/17 08:10:52;;;;;;;2.27;1.70;;;26.00;61.60;;;;;;4957618;29;20537;-89
2022/06/17 08:13:19;;;;;;;1.57;1.30;;;25.90;61.50;;;;;;4957200;28;20537;-90
2022/06/17 08:15:47;;;;;;;1.57;1.47;;;26.00;61.60;;;;;;4957398;28;20523;-90
2022/06/17 08:18:14;;;;;;;1.43;1.33;;;25.90;61.50;;;;;;4957272;29;20795;-90
2022/06/17 08:20:41;;;;;;;1.40;1.30;;;25.90;61.50;;;;;;4957098;28;20446;-87
2022/06/17 08:23:10;;;;;;;1.30;1.20;;;25.90;61.50;;;;;;4956893;28;21072;-87
2022/06/17 08:25:45;;;;;;;2.10;1.40;;;25.90;61.50;;;;;;4957570;28;20446;-87
2022/06/17 08:28:14;;;;;;;2.13;1.40;;;25.90;61.40;;;;;;4956705;28;21029;-87
2022/06/17 08:30:43;;;;;;;1.93;1.40;;;25.90;61.50;;;;;;4956831;28;20506;-87
2022/06/17 08:33:11;;;;;;;1.70;1.60;;;25.90;61.50;;;;;;4958084;28;20529;-89
2022/06/17 08:35:40;;;;;;;2.93;1.30;;;25.90;61.50;;;;;;4958521;28;20530;-87
2022/06/17 08:38:13;;;;;;;2.23;1.53;;;25.90;61.40;;;;;;4970303;28;20437;-87
2022/06/17 08:40:51;;;;;;;1.30;1.20;;;26.00;61.50;;;;;;4976040;28;20894;-88
2022/06/17 08:43:41;;;;;;;1.43;1.30;;;25.90;61.60;;;;;;4975884;28;20489;-88
2022/06/17 08:46:14;;;;;;;1.97;1.53;;;25.90;61.60;;;;;;4975868;28;20452;-91
2022/06/17 08:49:08;;;;;;;1.37;1.27;;;25.90;61.60;;;;;;4975796;28;20449;-91
2022/06/17 08:51:56;;;;;;;1.60;1.30;;;25.90;61.60;;;;;;4976331;28;20831;-89
2022/06/17 08:54:43;;;;;;;1.33;1.23;;;25.90;61.70;;;;;;4976204;28;20433;-88
2022/06/17 08:57:18;;;;;;;1.40;1.20;;;25.90;61.60;;;;;;4977263;28;20856;-90
2022/06/17 09:00:03;;;;;;;1.43;1.13;;;25.90;61.70;;;;;;4981198;28;20524;-89
2022/06/17 09:02:43;;;;;;;1.53;1.30;;;25.90;61.80;;;;;;4976281;28;20489;-92
2022/06/17 09:05:24;;;;;;;2.30;1.50;;;25.90;61.70;;;;;;4978570;28;20523;-92
2022/06/17 09:08:04;;;;;;;3.77;1.50;;;25.90;61.70;;;;;;4976773;28;20937;-90
2022/06/17 09:10:45;;;;;;;1.43;1.27;;;25.90;61.80;;;;;;4969180;28;20525;-85
2022/06/17 09:13:28;;;;;;;1.30;1.20;;;25.90;61.80;;;;;;4956160;28;20448;-87
2022/06/17 09:16:05;;;;;;;1.70;1.30;;;25.90;61.60;;;;;;4956022;28;20528;-89
2022/06/17 09:18:37;;;;;;;2.37;1.20;;;25.90;61.80;;;;;;4961620;28;20453;-85
2022/06/17 09:21:09;;;;;;;1.90;1.30;;;25.90;61.70;;;;;;4967898;28;20433;-88
2022/06/17 09:23:39;;;;;;;1.87;1.50;;;25.90;61.70;;;;;;4975467;28;20485;-87
2022/06/17 09:26:12;;;;;;;2.90;1.47;;;26.00;61.80;;;;;;4959706;28;20531;-91
2022/06/17 09:28:46;;;;;;;1.20;1.10;;;26.00;61.90;;;;;;4956321;28;20530;-90
2022/06/17 09:31:16;;;;;;;1.40;1.30;;;26.00;61.70;;;;;;4964186;28;20472;-88
2022/06/17 09:33:50;;;;;;;3.40;1.50;;;26.00;61.70;;;;;;4974404;28;20539;-89
2022/06/17 09:36:21;;;;;;;1.50;1.40;;;26.00;61.80;;;;;;4975497;28;20449;-89
2022/06/17 09:38:53;;;;;;;1.43;1.33;;;26.00;61.80;;;;;;4975355;28;20452;-88
2022/06/17 09:41:26;;;;;;;1.57;1.10;;;26.00;61.70;;;;;;4978338;28;20481;-88
2022/06/17 09:44:00;;;;;;;1.53;1.43;;;26.00;61.70;;;;;;4976595;28;20497;-89
2022/06/17 09:46:38;;;;;;;1.20;1.10;;;26.00;61.70;;;;;;4975102;28;20449;-89
2022/06/17 09:49:15;;;;;;;1.10;1.00;;;26.00;61.70;;;;;;4975032;28;20448;-88
2022/06/17 09:51:46;;;;;;;1.37;1.27;;;26.00;62.50;;;;;;4975159;28;20820;-88
2022/06/17 09:54:20;;;;;;;1.40;1.30;;;26.00;61.70;;;;;;4977396;28;20457;-87
2022/06/17 09:56:52;;;;;;;1.63;1.37;;;26.00;61.60;;;;;;4982524;28;20454;-88
2022/06/17 09:59:27;;;;;;;1.30;1.20;;;26.00;61.70;;;;;;4976488;28;20441;-87
2022/06/17 10:01:55;;;;;;;1.30;1.20;;;26.00;61.60;;;;;;4974736;28;20471;-86
2022/06/17 10:04:25;;;;;;;1.30;1.20;;;26.00;61.70;;;;;;4974254;28;20447;-91
2022/06/17 10:07:06;;;;;;;1.60;1.40;;;26.00;61.70;;;;;;4974126;28;20452;-86
2022/06/17 10:09:47;;;;;;;2.47;1.80;;;26.00;61.60;;;;;;4974866;28;20449;-85
2022/06/17 10:12:23;;;;;;;1.70;1.60;;;26.00;61.50;;;;;;4975249;28;20451;-93
2022/06/17 10:15:08;;;;;;;2.07;1.40;;;26.00;61.70;;;;;;4974578;28;20936;-90
2022/06/17 10:53:10;;;;;;;1.53;1.43;;;26.00;62.10;;;;;;4933505;29;20923;-87
2022/06/17 10:55:41;;;;;;;2.13;1.37;;;26.00;62.30;;;;;;4957123;29;20517;-88
2022/06/17 10:58:12;;;;;;;1.67;1.33;;;25.90;62.10;;;;;;4956647;29;20541;-88
2022/06/17 11:07:15;;;;;;;2.60;1.80;;;26.00;61.90;;;;;;4925419;29;20493;-91
2022/06/17 11:09:55;;;;;;;2.77;1.73;;;26.00;61.90;;;;;;4957503;28;20451;-89
2022/06/17 11:12:26;;;;;;;1.97;1.77;;;26.00;61.90;;;;;;4983543;28;20444;-83
2022/06/17 11:14:56;;;;;;;2.03;1.80;;;26.10;62.10;;;;;;4986940;28;20925;-81
2022/06/17 11:17:31;;;;;;;2.40;1.60;;;26.10;62.10;;;;;;4978373;28;20460;-82
2022/06/17 11:20:05;;;;;;;1.97;1.43;;;26.10;62.10;;;;;;4975339;28;20450;-87
2022/06/17 11:22:35;;;;;;;2.50;1.70;;;26.10;62.10;;;;;;4977327;28;21000;-82
2022/06/17 11:44:34;;;;;;;4.80;2.80;;;26.00;62.00;;;;;;4935582;29;20519;-89
2022/06/17 11:47:04;;;;;;;6.63;3.10;;;26.00;62.00;;;;;;4936497;29;20479;-92
2022/06/17 11:49:35;;;;;;;3.00;2.37;;;26.00;62.30;;;;;;4952315;29;20818;-87
2022/06/17 13:38:19;;;;;;;2.67;1.40;;;26.00;62.50;;;;;;4983284;28;20482;-83
2022/06/17 13:40:52;;;;;;;1.80;1.53;;;26.00;62.60;;;;;;5014080;28;20517;-85
2022/06/17 13:43:23;;;;;;;1.37;1.27;;;26.00;62.40;;;;;;4996401;28;20567;-85
2022/06/17 13:45:58;;;;;;;3.03;1.33;;;26.00;62.40;;;;;;5013822;28;20448;-87
2022/06/17 13:48:31;;;;;;;1.83;1.27;;;26.00;62.50;;;;;;5013338;28;20466;-85
2022/06/17 13:51:10;;;;;;;1.40;1.23;;;26.10;62.50;;;;;;5013534;28;20446;-86
2022/06/17 13:53:57;;;;;;;2.10;1.53;;;26.10;62.30;;;;;;5014392;28;20475;-84
2022/06/17 13:56:34;;;;;;;1.43;1.33;;;26.10;62.10;;;;;;5018144;28;20446;-85
2022/06/17 13:59:05;;;;;;;5.90;1.80;;;26.10;62.40;;;;;;5020550;28;20439;-85
2022/06/17 14:01:40;;;;;;;1.70;1.13;;;26.10;62.50;;;;;;5020221;28;20451;-82
2022/06/17 14:04:16;;;;;;;1.60;1.50;;;26.20;62.80;;;;;;5020097;28;20486;-86
2022/06/17 14:07:05;;;;;;;1.40;1.23;;;26.20;62.80;;;;;;5020043;28;20447;-83
2022/06/17 14:09:39;;;;;;;2.00;1.10;;;26.20;62.80;;;;;;5020350;28;20470;-88
2022/06/17 14:12:28;;;;;;;3.30;1.87;;;26.20;62.90;;;;;;5020279;28;20466;-82
2022/06/17 14:15:05;;;;;;;1.30;1.17;;;26.20;62.80;;;;;;5019883;28;20443;-88
2022/06/17 14:17:33;;;;;;;2.33;1.40;;;26.30;62.80;;;;;;5020242;28;20466;-86
2022/06/17 14:20:25;;;;;;;2.63;1.30;;;26.20;62.70;;;;;;5020434;28;20465;-83
2022/06/17 14:23:06;;;;;;;1.40;1.20;;;26.30;62.70;;;;;;5020220;28;20501;-82
2022/06/17 14:25:53;;;;;;;1.30;1.20;;;26.30;62.70;;;;;;5011640;28;20885;-85
2022/06/17 22:01:09;;;;;;;1.40;1.30;;;26.10;64.20;;;;;;5010076;28;20475;-87
2022/06/17 22:03:38;;;;;;;1.33;1.23;;;26.10;64.20;;;;;;5013783;28;20574;-86
2022/06/17 22:06:06;;;;;;;2.07;1.53;;;26.10;64.30;;;;;;5013537;28;20450;-86
2022/06/17 22:08:38;;;;;;;1.37;1.27;;;26.10;64.20;;;;;;5016409;28;20971;-86
2022/06/17 22:11:06;;;;;;;1.70;1.60;;;26.20;64.00;;;;;;5013371;28;20440;-86
2022/06/17 22:13:33;;;;;;;1.33;1.23;;;26.20;63.80;;;;;;5013601;28;20454;-89
2022/06/17 22:16:00;;;;;;;2.30;1.27;;;26.20;63.80;;;;;;5013830;28;20452;-93
2022/06/17 22:18:26;;;;;;;1.33;1.23;;;26.20;63.80;;;;;;5018340;28;20451;-93
2022/06/17 22:20:56;;;;;;;1.57;1.20;;;26.20;63.60;;;;;;5017601;28;20546;-89
2022/06/17 22:23:29;;;;;;;1.60;1.30;;;26.30;63.50;;;;;;5017814;28;20562;-88
2022/06/17 22:25:58;;;;;;;1.37;1.27;;;26.30;63.40;;;;;;4998093;28;20534;-88
2022/06/17 22:28:28;;;;;;;1.30;1.20;;;26.20;63.40;;;;;;4998015;28;20476;-89
2022/06/17 22:30:55;;;;;;;1.50;1.40;;;26.30;63.30;;;;;;4998088;28;20900;-94
2022/06/17 22:33:25;;;;;;;1.27;1.17;;;26.30;63.30;;;;;;4998312;28;20536;-89
2022/06/17 22:35:52;;;;;;;1.40;1.30;;;26.30;63.30;;;;;;4998310;28;20454;-90
2022/06/17 22:38:21;;;;;;;1.30;1.20;;;26.30;63.30;;;;;;4998858;28;20504;-89
2022/06/17 22:40:49;;;;;;;1.40;1.30;;;26.30;64.30;;;;;;4997820;28;20539;-88
2022/06/17 22:43:17;;;;;;;1.30;1.20;;;26.30;63.30;;;;;;4997741;28;20537;-89
2022/06/17 22:45:46;;;;;;;3.10;1.60;;;26.30;63.20;;;;;;4997700;28;20444;-89
2022/06/17 22:48:18;;;;;;;1.63;1.43;;;26.30;63.20;;;;;;4997834;28;20440;-89
2022/06/17 22:50:47;;;;;;;2.10;1.27;;;26.30;63.20;;;;;;4998358;28;20636;-88
2022/06/17 22:53:18;;;;;;;1.50;1.40;;;26.30;63.20;;;;;;4997461;28;20995;-86
2022/06/17 22:55:47;;;;;;;1.40;1.30;;;26.30;63.20;;;;;;5016706;28;20502;-87
2022/06/17 22:58:16;;;;;;;1.50;1.40;;;26.30;63.20;;;;;;5017043;28;20530;-88
2022/06/17 23:00:44;;;;;;;1.57;1.20;;;26.30;63.20;;;;;;5016704;28;20451;-94
2022/06/17 23:06:02;;;;;;;1.90;1.20;;;26.30;63.20;;;;;;5008081;28;20418;-88
2022/06/17 23:08:29;;;;;;;2.50;1.63;;;26.30;63.20;;;;;;5016433;28;20450;-88
2022/06/17 23:10:57;;;;;;;1.40;1.30;;;26.30;63.20;;;;;;5016496;28;20964;-88
2022/06/17 23:13:27;;;;;;;2.03;1.10;;;26.30;63.20;;;;;;5016725;28;20887;-88
2022/06/17 23:15:56;;;;;;;1.30;1.20;;;26.30;63.10;;;;;;5016850;28;20435;-88
2022/06/17 23:21:20;;;;;;;1.67;1.57;;;26.30;63.10;;;;;;4997202;28;20416;-88
2022/06/17 23:23:47;;;;;;;1.40;1.30;;;26.30;63.10;;;;;;4997384;28;20554;-88
2022/06/17 23:26:15;;;;;;;1.40;1.30;;;26.30;63.10;;;;;;4996600;28;20939;-88
2022/06/17 23:28:42;;;;;;;1.27;1.17;;;26.30;63.10;;;;;;5013832;28;20957;-88
2022/06/17 23:31:14;;;;;;;1.40;1.30;;;26.30;63.10;;;;;;5016234;28;21017;-94
2022/06/17 23:33:45;;;;;;;1.30;1.20;;;26.30;63.10;;;;;;5016377;28;20483;-88
2022/06/17 23:36:17;;;;;;;1.23;1.13;;;26.30;63.00;;;;;;5016612;28;20546;-88
2022/06/17 23:38:46;;;;;;;1.53;1.43;;;26.30;63.00;;;;;;5016157;28;20450;-88